Etusivu
METAR-TAF:

METAR-TAF

Lentoasemat :

Avenger Field

Sweetwater, Texas, Yhdysvallat

Leveyspiiri: 32-28-02N, Pituuspiiri: 100-27-59W, korkeus merenpinnasta: 725 m

Tämänhetkinen sää

Tämä raportti tehtiin 33 minuuttia sitten, kello 19.35 UTC
Tuuli 11 kn etelästä
Lämpötila 13°C
Kosteus 82%
Ilmanpaine 1014 hPa
Näkyvyys: 16.1 km
Hajonneita pilviä 10000 ft:n korkeudessa
Hajonneita pilviä 12000 ft:n korkeudessa

METAR: KSWW 231935Z AUTO 17011KT 10SM BKN100 BKN120 13/10 A2993 RMK AO2 T01250104

Aika: 14:08 (20:08 UTC)


TAF: puuttuu

Säähavainnot ja -ennusteet yli 4000 lentoasemalta (METAR- ja TAF-raportit).

Käytössä olevat sääasemat on merkitty karttaan keltaisilla ja punaisilla pisteillä.

Aseta hiiri pisteen päälle nähdäksesi sääaseman nimen.

Klikkaa sitten nähdäksesi säähavainnot ja -ennusteet.

Kartan vaihtaminen: klikkaa mustalla rastilla varustettuja vihreitä pisteitä, niin voit zoomata sisään; viivalla varustettua vihreää pistettä, niin voit zoomata ulos tai vihreitä nuolia, niin pääset viereisille kartoille.


METAR-TAF: